sensor_id;sensor_type;location;lat;lon;timestamp;temperature;humidity
5222;DHT22;2630;52.036;8.514;2023-06-24T00:00:04;15.20;99.90
5222;DHT22;2630;52.036;8.514;2023-06-24T00:02:35;15.20;99.90
5222;DHT22;2630;52.036;8.514;2023-06-24T00:05:06;15.10;99.90
5222;DHT22;2630;52.036;8.514;2023-06-24T00:07:34;15.00;99.90
5222;DHT22;2630;52.036;8.514;2023-06-24T00:10:09;15.00;99.90
5222;DHT22;2630;52.036;8.514;2023-06-24T00:12:35;15.00;99.90
5222;DHT22;2630;52.036;8.514;2023-06-24T00:15:01;15.10;99.90
5222;DHT22;2630;52.036;8.514;2023-06-24T00:17:26;15.00;99.90
5222;DHT22;2630;52.036;8.514;2023-06-24T00:19:53;15.00;99.90
5222;DHT22;2630;52.036;8.514;2023-06-24T00:22:20;15.00;99.90
5222;DHT22;2630;52.036;8.514;2023-06-24T00:24:45;15.00;99.90
5222;DHT22;2630;52.036;8.514;2023-06-24T00:27:12;14.90;99.90
5222;DHT22;2630;52.036;8.514;2023-06-24T00:29:37;14.90;99.90
5222;DHT22;2630;52.036;8.514;2023-06-24T00:32:03;14.80;99.90
5222;DHT22;2630;52.036;8.514;2023-06-24T00:34:29;14.90;99.90
5222;DHT22;2630;52.036;8.514;2023-06-24T00:36:55;14.90;99.90
5222;DHT22;2630;52.036;8.514;2023-06-24T00:39:20;14.80;99.90
5222;DHT22;2630;52.036;8.514;2023-06-24T00:44:12;14.80;99.90
5222;DHT22;2630;52.036;8.514;2023-06-24T00:46:38;14.90;99.90
5222;DHT22;2630;52.036;8.514;2023-06-24T00:49:05;14.90;99.90
5222;DHT22;2630;52.036;8.514;2023-06-24T00:51:30;14.90;99.90
5222;DHT22;2630;52.036;8.514;2023-06-24T00:53:57;14.80;99.90
5222;DHT22;2630;52.036;8.514;2023-06-24T00:58:52;14.80;99.90
5222;DHT22;2630;52.036;8.514;2023-06-24T01:01:18;14.80;99.90
5222;DHT22;2630;52.036;8.514;2023-06-24T01:03:44;14.70;99.90
5222;DHT22;2630;52.036;8.514;2023-06-24T01:06:10;14.60;99.90
5222;DHT22;2630;52.036;8.514;2023-06-24T01:08:37;14.60;99.90
5222;DHT22;2630;52.036;8.514;2023-06-24T01:11:02;14.60;99.90
5222;DHT22;2630;52.036;8.514;2023-06-24T01:13:28;14.60;99.90
5222;DHT22;2630;52.036;8.514;2023-06-24T01:18:21;14.50;99.90
5222;DHT22;2630;52.036;8.514;2023-06-24T01:31:45;14.50;99.90
5222;DHT22;2630;52.036;8.514;2023-06-24T01:34:32;14.50;99.90
5222;DHT22;2630;52.036;8.514;2023-06-24T01:37:16;14.50;99.90
5222;DHT22;2630;52.036;8.514;2023-06-24T01:40:01;14.50;99.90
5222;DHT22;2630;52.036;8.514;2023-06-24T01:42:39;14.50;99.90
5222;DHT22;2630;52.036;8.514;2023-06-24T01:45:07;14.40;99.90
5222;DHT22;2630;52.036;8.514;2023-06-24T01:47:34;14.50;99.90
5222;DHT22;2630;52.036;8.514;2023-06-24T01:50:03;14.40;99.90
5222;DHT22;2630;52.036;8.514;2023-06-24T01:52:29;14.40;99.90
5222;DHT22;2630;52.036;8.514;2023-06-24T01:54:58;14.40;99.90
5222;DHT22;2630;52.036;8.514;2023-06-24T01:57:25;14.30;99.90
5222;DHT22;2630;52.036;8.514;2023-06-24T02:02:21;14.30;99.90
5222;DHT22;2630;52.036;8.514;2023-06-24T02:04:48;14.40;99.90
5222;DHT22;2630;52.036;8.514;2023-06-24T02:07:15;14.30;99.90
5222;DHT22;2630;52.036;8.514;2023-06-24T02:09:44;14.30;99.90
5222;DHT22;2630;52.036;8.514;2023-06-24T02:12:11;14.30;99.90
5222;DHT22;2630;52.036;8.514;2023-06-24T02:14:38;14.30;99.90
5222;DHT22;2630;52.036;8.514;2023-06-24T02:17:06;14.30;99.90
5222;DHT22;2630;52.036;8.514;2023-06-24T02:24:27;14.20;99.90
5222;DHT22;2630;52.036;8.514;2023-06-24T02:26:54;14.10;99.90
5222;DHT22;2630;52.036;8.514;2023-06-24T02:29:21;14.20;99.90
5222;DHT22;2630;52.036;8.514;2023-06-24T02:31:47;14.10;99.90
5222;DHT22;2630;52.036;8.514;2023-06-24T02:34:13;14.10;99.90
5222;DHT22;2630;52.036;8.514;2023-06-24T02:36:39;14.10;99.90
5222;DHT22;2630;52.036;8.514;2023-06-24T02:39:04;14.10;99.90
5222;DHT22;2630;52.036;8.514;2023-06-24T02:46:22;14.10;99.90
5222;DHT22;2630;52.036;8.514;2023-06-24T02:48:49;14.20;99.90
5222;DHT22;2630;52.036;8.514;2023-06-24T02:51:16;14.20;99.90
5222;DHT22;2630;52.036;8.514;2023-06-24T02:53:42;14.20;99.90
5222;DHT22;2630;52.036;8.514;2023-06-24T02:58:37;14.30;99.90
5222;DHT22;2630;52.036;8.514;2023-06-24T03:01:05;14.30;99.90
5222;DHT22;2630;52.036;8.514;2023-06-24T03:03:35;14.30;99.90
5222;DHT22;2630;52.036;8.514;2023-06-24T03:06:01;14.30;99.90
5222;DHT22;2630;52.036;8.514;2023-06-24T03:08:28;14.30;99.90
5222;DHT22;2630;52.036;8.514;2023-06-24T03:10:54;14.30;99.90
5222;DHT22;2630;52.036;8.514;2023-06-24T03:13:20;14.20;99.90
5222;DHT22;2630;52.036;8.514;2023-06-24T03:15:46;14.10;99.90
5222;DHT22;2630;52.036;8.514;2023-06-24T03:20:37;14.10;99.90
5222;DHT22;2630;52.036;8.514;2023-06-24T03:23:07;14.00;99.90
5222;DHT22;2630;52.036;8.514;2023-06-24T03:25:33;14.10;99.90
5222;DHT22;2630;52.036;8.514;2023-06-24T03:27:59;14.10;99.90
5222;DHT22;2630;52.036;8.514;2023-06-24T03:30:29;14.10;99.90
5222;DHT22;2630;52.036;8.514;2023-06-24T03:35:23;14.20;99.90
5222;DHT22;2630;52.036;8.514;2023-06-24T03:40:14;14.20;99.90
5222;DHT22;2630;52.036;8.514;2023-06-24T03:42:40;14.30;99.90
5222;DHT22;2630;52.036;8.514;2023-06-24T03:45:06;14.40;99.90
5222;DHT22;2630;52.036;8.514;2023-06-24T03:47:31;14.40;99.90
5222;DHT22;2630;52.036;8.514;2023-06-24T03:52:23;14.60;99.90
5222;DHT22;2630;52.036;8.514;2023-06-24T03:59:40;14.80;99.90
5222;DHT22;2630;52.036;8.514;2023-06-24T04:06:59;15.50;99.90
5222;DHT22;2630;52.036;8.514;2023-06-24T04:11:50;16.10;99.90
5222;DHT22;2630;52.036;8.514;2023-06-24T04:14:16;16.80;99.90
5222;DHT22;2630;52.036;8.514;2023-06-24T04:21:34;17.50;99.90
5222;DHT22;2630;52.036;8.514;2023-06-24T04:33:43;17.20;99.90
5222;DHT22;2630;52.036;8.514;2023-06-24T04:36:09;17.10;99.90
5222;DHT22;2630;52.036;8.514;2023-06-24T04:41:00;16.90;99.90
5222;DHT22;2630;52.036;8.514;2023-06-24T04:45:55;16.80;99.90
5222;DHT22;2630;52.036;8.514;2023-06-24T04:48:23;16.80;99.90
5222;DHT22;2630;52.036;8.514;2023-06-24T04:50:49;16.70;99.90
5222;DHT22;2630;52.036;8.514;2023-06-24T04:53:14;16.60;99.90
5222;DHT22;2630;52.036;8.514;2023-06-24T04:55:40;16.60;99.90
5222;DHT22;2630;52.036;8.514;2023-06-24T05:00:31;16.70;99.90
5222;DHT22;2630;52.036;8.514;2023-06-24T05:02:57;16.70;99.90
5222;DHT22;2630;52.036;8.514;2023-06-24T05:05:23;16.80;99.90
5222;DHT22;2630;52.036;8.514;2023-06-24T05:07:49;16.80;99.90
5222;DHT22;2630;52.036;8.514;2023-06-24T05:12:40;16.90;99.90
5222;DHT22;2630;52.036;8.514;2023-06-24T05:15:06;17.00;99.90
5222;DHT22;2630;52.036;8.514;2023-06-24T05:17:32;17.10;99.90
5222;DHT22;2630;52.036;8.514;2023-06-24T05:19:58;17.30;99.90
5222;DHT22;2630;52.036;8.514;2023-06-24T05:22:24;17.30;99.90
5222;DHT22;2630;52.036;8.514;2023-06-24T05:24:49;17.40;99.90
5222;DHT22;2630;52.036;8.514;2023-06-24T05:27:15;17.50;99.90
5222;DHT22;2630;52.036;8.514;2023-06-24T05:29:40;17.60;99.90
5222;DHT22;2630;52.036;8.514;2023-06-24T05:34:32;17.80;99.90
5222;DHT22;2630;52.036;8.514;2023-06-24T05:36:59;17.80;99.90
5222;DHT22;2630;52.036;8.514;2023-06-24T05:39:24;18.00;99.90
5222;DHT22;2630;52.036;8.514;2023-06-24T05:41:50;18.20;99.90
5222;DHT22;2630;52.036;8.514;2023-06-24T05:46:44;18.40;99.90
5222;DHT22;2630;52.036;8.514;2023-06-24T05:49:09;18.50;99.90
5222;DHT22;2630;52.036;8.514;2023-06-24T05:51:35;18.50;99.90
5222;DHT22;2630;52.036;8.514;2023-06-24T05:54:01;18.70;99.90
5222;DHT22;2630;52.036;8.514;2023-06-24T05:58:52;18.80;99.90
5222;DHT22;2630;52.036;8.514;2023-06-24T06:01:18;18.90;99.90
5222;DHT22;2630;52.036;8.514;2023-06-24T06:03:43;19.00;99.90
5222;DHT22;2630;52.036;8.514;2023-06-24T06:06:09;19.10;99.90
5222;DHT22;2630;52.036;8.514;2023-06-24T06:08:35;19.20;99.90
5222;DHT22;2630;52.036;8.514;2023-06-24T06:11:00;20.00;99.90
5222;DHT22;2630;52.036;8.514;2023-06-24T06:13:30;21.80;99.90
5222;DHT22;2630;52.036;8.514;2023-06-24T06:18:22;23.90;99.90
5222;DHT22;2630;52.036;8.514;2023-06-24T06:20:47;24.10;99.90
5222;DHT22;2630;52.036;8.514;2023-06-24T06:23:13;24.00;99.90
5222;DHT22;2630;52.036;8.514;2023-06-24T06:28:05;23.30;99.90
5222;DHT22;2630;52.036;8.514;2023-06-24T06:30:31;23.00;99.90
5222;DHT22;2630;52.036;8.514;2023-06-24T06:32:56;22.80;99.90
5222;DHT22;2630;52.036;8.514;2023-06-24T06:35:22;22.60;99.90
5222;DHT22;2630;52.036;8.514;2023-06-24T06:37:48;22.50;99.90
5222;DHT22;2630;52.036;8.514;2023-06-24T06:40:21;22.50;99.90
5222;DHT22;2630;52.036;8.514;2023-06-24T06:45:12;22.60;99.90
5222;DHT22;2630;52.036;8.514;2023-06-24T06:47:38;22.60;99.90
5222;DHT22;2630;52.036;8.514;2023-06-24T06:50:04;22.60;99.90
5222;DHT22;2630;52.036;8.514;2023-06-24T06:52:30;22.50;99.90
5222;DHT22;2630;52.036;8.514;2023-06-24T06:54:56;22.90;99.90
5222;DHT22;2630;52.036;8.514;2023-06-24T06:57:22;23.10;99.90
5222;DHT22;2630;52.036;8.514;2023-06-24T06:59:48;23.20;99.90
5222;DHT22;2630;52.036;8.514;2023-06-24T07:02:16;23.40;99.90
5222;DHT22;2630;52.036;8.514;2023-06-24T07:04:42;23.60;99.90
5222;DHT22;2630;52.036;8.514;2023-06-24T07:07:08;24.60;99.90
5222;DHT22;2630;52.036;8.514;2023-06-24T07:09:34;26.00;99.90
5222;DHT22;2630;52.036;8.514;2023-06-24T07:11:59;27.00;99.90
5222;DHT22;2630;52.036;8.514;2023-06-24T07:19:17;27.30;99.90
5222;DHT22;2630;52.036;8.514;2023-06-24T07:26:35;26.30;99.90
5222;DHT22;2630;52.036;8.514;2023-06-24T07:29:00;25.80;99.90
5222;DHT22;2630;52.036;8.514;2023-06-24T07:31:26;25.20;99.90
5222;DHT22;2630;52.036;8.514;2023-06-24T07:33:52;25.00;99.90
5222;DHT22;2630;52.036;8.514;2023-06-24T07:36:17;24.80;99.90
5222;DHT22;2630;52.036;8.514;2023-06-24T07:41:10;24.40;99.90
5222;DHT22;2630;52.036;8.514;2023-06-24T07:43:35;24.50;99.90
5222;DHT22;2630;52.036;8.514;2023-06-24T07:46:02;24.50;99.90
5222;DHT22;2630;52.036;8.514;2023-06-24T07:48:28;24.60;99.90
5222;DHT22;2630;52.036;8.514;2023-06-24T07:50:53;24.60;99.90
5222;DHT22;2630;52.036;8.514;2023-06-24T07:53:19;24.50;99.90
5222;DHT22;2630;52.036;8.514;2023-06-24T07:55:45;24.20;99.90
5222;DHT22;2630;52.036;8.514;2023-06-24T08:00:36;24.20;99.90
5222;DHT22;2630;52.036;8.514;2023-06-24T08:03:03;24.10;99.90
5222;DHT22;2630;52.036;8.514;2023-06-24T08:05:29;24.30;99.90
5222;DHT22;2630;52.036;8.514;2023-06-24T08:07:54;24.60;99.90
5222;DHT22;2630;52.036;8.514;2023-06-24T08:10:20;25.00;99.90
5222;DHT22;2630;52.036;8.514;2023-06-24T08:12:45;25.20;99.90
5222;DHT22;2630;52.036;8.514;2023-06-24T08:17:37;25.00;99.90
5222;DHT22;2630;52.036;8.514;2023-06-24T08:20:03;25.20;99.90
5222;DHT22;2630;52.036;8.514;2023-06-24T08:24:55;25.60;99.90
5222;DHT22;2630;52.036;8.514;2023-06-24T08:27:40;25.80;99.90
5222;DHT22;2630;52.036;8.514;2023-06-24T08:30:24;25.80;99.90
5222;DHT22;2630;52.036;8.514;2023-06-24T08:32:50;25.80;99.90
5222;DHT22;2630;52.036;8.514;2023-06-24T08:35:16;25.80;99.90
5222;DHT22;2630;52.036;8.514;2023-06-24T08:40:07;25.70;99.90
5222;DHT22;2630;52.036;8.514;2023-06-24T08:42:34;25.70;99.90
5222;DHT22;2630;52.036;8.514;2023-06-24T08:44:59;25.70;99.90
5222;DHT22;2630;52.036;8.514;2023-06-24T08:53:18;25.80;99.90
5222;DHT22;2630;52.036;8.514;2023-06-24T08:55:46;26.00;99.90
5222;DHT22;2630;52.036;8.514;2023-06-24T08:58:13;26.20;99.90
5222;DHT22;2630;52.036;8.514;2023-06-24T09:00:39;26.60;99.90
5222;DHT22;2630;52.036;8.514;2023-06-24T09:03:05;27.40;99.90
5222;DHT22;2630;52.036;8.514;2023-06-24T09:05:30;28.70;99.90
5222;DHT22;2630;52.036;8.514;2023-06-24T09:07:56;29.90;99.90
5222;DHT22;2630;52.036;8.514;2023-06-24T09:10:35;31.00;99.90
5222;DHT22;2630;52.036;8.514;2023-06-24T09:13:02;32.10;99.70
5222;DHT22;2630;52.036;8.514;2023-06-24T09:15:32;33.20;97.90
5222;DHT22;2630;52.036;8.514;2023-06-24T09:17:58;34.60;96.40
5222;DHT22;2630;52.036;8.514;2023-06-24T09:20:29;35.90;93.90
5222;DHT22;2630;52.036;8.514;2023-06-24T09:22:59;37.10;91.80
5222;DHT22;2630;52.036;8.514;2023-06-24T09:25:25;38.70;85.90
5222;DHT22;2630;52.036;8.514;2023-06-24T09:27:51;39.40;73.30
5222;DHT22;2630;52.036;8.514;2023-06-24T09:30:22;39.40;67.60
5222;DHT22;2630;52.036;8.514;2023-06-24T09:32:49;39.20;65.60
5222;DHT22;2630;52.036;8.514;2023-06-24T09:35:18;39.30;66.50
5222;DHT22;2630;52.036;8.514;2023-06-24T09:37:49;40.30;66.40
5222;DHT22;2630;52.036;8.514;2023-06-24T09:40:15;41.50;65.50
5222;DHT22;2630;52.036;8.514;2023-06-24T09:42:57;41.50;59.40
5222;DHT22;2630;52.036;8.514;2023-06-24T09:45:27;41.30;61.80
5222;DHT22;2630;52.036;8.514;2023-06-24T09:47:54;41.60;61.10
5222;DHT22;2630;52.036;8.514;2023-06-24T09:50:20;42.20;57.30
5222;DHT22;2630;52.036;8.514;2023-06-24T09:52:47;42.80;55.60
5222;DHT22;2630;52.036;8.514;2023-06-24T09:55:14;42.40;53.40
5222;DHT22;2630;52.036;8.514;2023-06-24T09:57:43;40.10;53.90
5222;DHT22;2630;52.036;8.514;2023-06-24T10:02:36;38.80;55.50
5222;DHT22;2630;52.036;8.514;2023-06-24T10:05:03;38.60;58.20
5222;DHT22;2630;52.036;8.514;2023-06-24T10:09:56;39.60;61.30
5222;DHT22;2630;52.036;8.514;2023-06-24T10:12:21;39.30;56.50
5222;DHT22;2630;52.036;8.514;2023-06-24T10:14:47;38.50;61.20
5222;DHT22;2630;52.036;8.514;2023-06-24T10:19:40;39.00;60.60
5222;DHT22;2630;52.036;8.514;2023-06-24T10:24:40;35.60;58.00
5222;DHT22;2630;52.036;8.514;2023-06-24T10:27:08;35.00;62.40
5222;DHT22;2630;52.036;8.514;2023-06-24T10:29:35;34.70;64.10
5222;DHT22;2630;52.036;8.514;2023-06-24T10:34:34;33.40;68.90
5222;DHT22;2630;52.036;8.514;2023-06-24T10:37:25;32.80;70.80
5222;DHT22;2630;52.036;8.514;2023-06-24T10:52:47;29.70;89.70
5222;DHT22;2630;52.036;8.514;2023-06-24T10:57:42;28.60;90.40
5222;DHT22;2630;52.036;8.514;2023-06-24T11:00:10;28.20;92.60
5222;DHT22;2630;52.036;8.514;2023-06-24T11:02:35;27.80;93.80
5222;DHT22;2630;52.036;8.514;2023-06-24T11:10:01;27.20;99.90
5222;DHT22;2630;52.036;8.514;2023-06-24T11:12:37;27.30;99.90
5222;DHT22;2630;52.036;8.514;2023-06-24T11:15:07;27.20;99.90
5222;DHT22;2630;52.036;8.514;2023-06-24T11:17:34;26.80;99.90
5222;DHT22;2630;52.036;8.514;2023-06-24T11:20:01;26.50;99.90
5222;DHT22;2630;52.036;8.514;2023-06-24T11:24:54;26.50;99.90
5222;DHT22;2630;52.036;8.514;2023-06-24T11:27:29;26.60;99.90
5222;DHT22;2630;52.036;8.514;2023-06-24T11:29:59;26.70;99.90
5222;DHT22;2630;52.036;8.514;2023-06-24T11:32:40;26.90;99.90
5222;DHT22;2630;52.036;8.514;2023-06-24T11:35:07;27.10;99.90
5222;DHT22;2630;52.036;8.514;2023-06-24T11:40:07;27.50;99.90
5222;DHT22;2630;52.036;8.514;2023-06-24T11:42:40;27.60;99.90
5222;DHT22;2630;52.036;8.514;2023-06-24T11:45:10;27.60;99.90
5222;DHT22;2630;52.036;8.514;2023-06-24T11:47:38;27.50;99.90
5222;DHT22;2630;52.036;8.514;2023-06-24T11:50:05;27.40;99.90
5222;DHT22;2630;52.036;8.514;2023-06-24T11:52:44;27.40;99.90
5222;DHT22;2630;52.036;8.514;2023-06-24T11:55:18;27.30;99.90
5222;DHT22;2630;52.036;8.514;2023-06-24T11:57:49;27.20;99.90
5222;DHT22;2630;52.036;8.514;2023-06-24T12:00:15;27.20;99.90
5222;DHT22;2630;52.036;8.514;2023-06-24T12:02:41;27.50;99.90
5222;DHT22;2630;52.036;8.514;2023-06-24T12:05:07;27.40;99.90
5222;DHT22;2630;52.036;8.514;2023-06-24T12:09:59;27.30;99.90
5222;DHT22;2630;52.036;8.514;2023-06-24T12:12:25;27.30;99.90
5222;DHT22;2630;52.036;8.514;2023-06-24T12:14:50;27.40;99.90
5222;DHT22;2630;52.036;8.514;2023-06-24T12:17:16;27.40;99.90
5222;DHT22;2630;52.036;8.514;2023-06-24T12:19:41;27.40;99.90
5222;DHT22;2630;52.036;8.514;2023-06-24T12:22:07;27.40;99.90
5222;DHT22;2630;52.036;8.514;2023-06-24T12:24:33;27.30;99.90
5222;DHT22;2630;52.036;8.514;2023-06-24T12:26:58;27.10;99.90
5222;DHT22;2630;52.036;8.514;2023-06-24T12:29:24;27.10;99.90
5222;DHT22;2630;52.036;8.514;2023-06-24T12:34:15;27.30;99.90
5222;DHT22;2630;52.036;8.514;2023-06-24T12:36:41;27.50;99.90
5222;DHT22;2630;52.036;8.514;2023-06-24T12:39:06;27.70;99.90
5222;DHT22;2630;52.036;8.514;2023-06-24T12:41:32;27.80;99.90
5222;DHT22;2630;52.036;8.514;2023-06-24T12:43:58;27.80;99.90
5222;DHT22;2630;52.036;8.514;2023-06-24T12:46:24;27.70;99.50
5222;DHT22;2630;52.036;8.514;2023-06-24T12:48:49;27.70;99.90
5222;DHT22;2630;52.036;8.514;2023-06-24T12:56:07;27.30;99.90
5222;DHT22;2630;52.036;8.514;2023-06-24T13:01:00;27.20;99.90
5222;DHT22;2630;52.036;8.514;2023-06-24T13:05:51;27.40;99.90
5222;DHT22;2630;52.036;8.514;2023-06-24T13:08:17;27.50;99.90
5222;DHT22;2630;52.036;8.514;2023-06-24T13:10:42;27.60;99.50
5222;DHT22;2630;52.036;8.514;2023-06-24T13:13:08;27.80;99.20
5222;DHT22;2630;52.036;8.514;2023-06-24T13:18:00;28.20;96.70
5222;DHT22;2630;52.036;8.514;2023-06-24T13:22:53;28.10;98.80
5222;DHT22;2630;52.036;8.514;2023-06-24T13:25:18;28.10;99.40
5222;DHT22;2630;52.036;8.514;2023-06-24T13:27:44;28.00;99.50
5222;DHT22;2630;52.036;8.514;2023-06-24T13:30:10;28.00;99.20
5222;DHT22;2630;52.036;8.514;2023-06-24T13:32:36;28.00;99.40
5222;DHT22;2630;52.036;8.514;2023-06-24T13:35:02;28.20;98.90
5222;DHT22;2630;52.036;8.514;2023-06-24T13:37:27;28.30;96.90
5222;DHT22;2630;52.036;8.514;2023-06-24T13:39:53;28.30;99.00
5222;DHT22;2630;52.036;8.514;2023-06-24T13:42:19;28.30;98.90
5222;DHT22;2630;52.036;8.514;2023-06-24T13:44:45;28.30;97.20
5222;DHT22;2630;52.036;8.514;2023-06-24T13:52:02;28.30;99.40
5222;DHT22;2630;52.036;8.514;2023-06-24T13:54:28;28.20;97.10
5222;DHT22;2630;52.036;8.514;2023-06-24T13:56:57;28.10;98.40
5222;DHT22;2630;52.036;8.514;2023-06-24T13:59:23;28.10;98.50
5222;DHT22;2630;52.036;8.514;2023-06-24T14:01:48;27.90;98.80
5222;DHT22;2630;52.036;8.514;2023-06-24T14:04:14;27.80;99.90
5222;DHT22;2630;52.036;8.514;2023-06-24T14:09:06;27.60;99.90
5222;DHT22;2630;52.036;8.514;2023-06-24T14:11:31;27.60;99.50
5222;DHT22;2630;52.036;8.514;2023-06-24T14:13:57;27.60;99.90
5222;DHT22;2630;52.036;8.514;2023-06-24T14:18:49;27.60;99.90
5222;DHT22;2630;52.036;8.514;2023-06-24T14:21:14;27.70;99.90
5222;DHT22;2630;52.036;8.514;2023-06-24T14:23:40;27.60;99.90
5222;DHT22;2630;52.036;8.514;2023-06-24T14:26:06;27.60;99.90
5222;DHT22;2630;52.036;8.514;2023-06-24T14:28:31;27.50;99.90
5222;DHT22;2630;52.036;8.514;2023-06-24T14:35:49;27.80;99.90
5222;DHT22;2630;52.036;8.514;2023-06-24T14:38:16;27.80;99.90
5222;DHT22;2630;52.036;8.514;2023-06-24T14:40:41;27.80;99.90
5222;DHT22;2630;52.036;8.514;2023-06-24T14:45:33;27.90;99.90
5222;DHT22;2630;52.036;8.514;2023-06-24T14:47:59;27.80;99.90
5222;DHT22;2630;52.036;8.514;2023-06-24T14:50:24;27.80;99.90
5222;DHT22;2630;52.036;8.514;2023-06-24T14:52:50;27.80;99.90
5222;DHT22;2630;52.036;8.514;2023-06-24T14:55:15;27.50;99.90
5222;DHT22;2630;52.036;8.514;2023-06-24T14:57:41;27.30;99.90
5222;DHT22;2630;52.036;8.514;2023-06-24T15:05:00;27.00;99.90
5222;DHT22;2630;52.036;8.514;2023-06-24T15:07:26;26.90;99.90
5222;DHT22;2630;52.036;8.514;2023-06-24T15:09:51;26.80;99.90
5222;DHT22;2630;52.036;8.514;2023-06-24T15:12:17;26.90;99.90
5222;DHT22;2630;52.036;8.514;2023-06-24T15:14:43;26.90;99.90
5222;DHT22;2630;52.036;8.514;2023-06-24T15:19:36;26.80;99.90
5222;DHT22;2630;52.036;8.514;2023-06-24T15:22:02;26.90;99.90
5222;DHT22;2630;52.036;8.514;2023-06-24T15:24:28;27.00;99.90
5222;DHT22;2630;52.036;8.514;2023-06-24T15:26:53;27.10;99.90
5222;DHT22;2630;52.036;8.514;2023-06-24T15:29:19;27.10;99.90
5222;DHT22;2630;52.036;8.514;2023-06-24T15:31:44;27.30;99.90
5222;DHT22;2630;52.036;8.514;2023-06-24T15:34:10;27.30;99.90
5222;DHT22;2630;52.036;8.514;2023-06-24T15:36:37;27.40;99.90
5222;DHT22;2630;52.036;8.514;2023-06-24T15:39:02;27.50;99.90
5222;DHT22;2630;52.036;8.514;2023-06-24T15:41:28;27.50;99.90
5222;DHT22;2630;52.036;8.514;2023-06-24T15:43:54;27.60;99.90
5222;DHT22;2630;52.036;8.514;2023-06-24T15:46:19;27.70;99.90
5222;DHT22;2630;52.036;8.514;2023-06-24T15:48:45;27.70;99.90
5222;DHT22;2630;52.036;8.514;2023-06-24T15:56:02;27.40;99.90
5222;DHT22;2630;52.036;8.514;2023-06-24T15:58:28;27.40;99.90
5222;DHT22;2630;52.036;8.514;2023-06-24T16:00:53;27.30;99.90
5222;DHT22;2630;52.036;8.514;2023-06-24T16:03:19;27.40;99.90
5222;DHT22;2630;52.036;8.514;2023-06-24T16:05:45;27.40;99.90
5222;DHT22;2630;52.036;8.514;2023-06-24T16:10:36;27.70;99.90
5222;DHT22;2630;52.036;8.514;2023-06-24T16:15:28;27.80;99.90
5222;DHT22;2630;52.036;8.514;2023-06-24T16:17:53;27.90;99.90
5222;DHT22;2630;52.036;8.514;2023-06-24T16:20:19;27.70;99.90
5222;DHT22;2630;52.036;8.514;2023-06-24T16:22:46;27.60;99.90
5222;DHT22;2630;52.036;8.514;2023-06-24T16:25:12;27.50;99.90
5222;DHT22;2630;52.036;8.514;2023-06-24T16:27:38;27.30;99.90
5222;DHT22;2630;52.036;8.514;2023-06-24T16:32:32;26.90;99.90
5222;DHT22;2630;52.036;8.514;2023-06-24T16:39:50;26.50;99.90
5222;DHT22;2630;52.036;8.514;2023-06-24T16:42:16;26.40;99.90
5222;DHT22;2630;52.036;8.514;2023-06-24T16:44:41;26.20;99.90
5222;DHT22;2630;52.036;8.514;2023-06-24T16:47:08;26.20;99.90
5222;DHT22;2630;52.036;8.514;2023-06-24T16:52:00;26.10;99.90
5222;DHT22;2630;52.036;8.514;2023-06-24T16:54:25;26.00;99.90
5222;DHT22;2630;52.036;8.514;2023-06-24T17:01:43;26.10;99.90
5222;DHT22;2630;52.036;8.514;2023-06-24T17:04:09;26.10;99.90
5222;DHT22;2630;52.036;8.514;2023-06-24T17:06:35;26.10;99.90
5222;DHT22;2630;52.036;8.514;2023-06-24T17:09:01;26.10;99.90
5222;DHT22;2630;52.036;8.514;2023-06-24T17:11:27;26.10;99.90
5222;DHT22;2630;52.036;8.514;2023-06-24T17:13:52;26.10;99.90
5222;DHT22;2630;52.036;8.514;2023-06-24T17:16:18;26.10;99.90
5222;DHT22;2630;52.036;8.514;2023-06-24T17:26:02;25.80;99.90
5222;DHT22;2630;52.036;8.514;2023-06-24T17:28:28;25.80;99.90
5222;DHT22;2630;52.036;8.514;2023-06-24T17:30:54;25.90;99.90
5222;DHT22;2630;52.036;8.514;2023-06-24T17:33:19;25.80;99.90
5222;DHT22;2630;52.036;8.514;2023-06-24T17:35:45;25.80;99.90
5222;DHT22;2630;52.036;8.514;2023-06-24T17:38:10;25.80;99.90
5222;DHT22;2630;52.036;8.514;2023-06-24T17:40:36;25.80;99.90
5222;DHT22;2630;52.036;8.514;2023-06-24T17:43:02;25.80;99.90
5222;DHT22;2630;52.036;8.514;2023-06-24T17:45:28;25.80;99.90
5222;DHT22;2630;52.036;8.514;2023-06-24T17:47:54;25.80;99.90
5222;DHT22;2630;52.036;8.514;2023-06-24T17:50:21;25.70;99.90
5222;DHT22;2630;52.036;8.514;2023-06-24T17:52:50;25.80;99.90
5222;DHT22;2630;52.036;8.514;2023-06-24T17:55:16;25.70;99.90
5222;DHT22;2630;52.036;8.514;2023-06-24T17:57:42;25.70;99.90
5222;DHT22;2630;52.036;8.514;2023-06-24T18:00:08;25.70;99.90
5222;DHT22;2630;52.036;8.514;2023-06-24T18:02:34;25.70;99.90
5222;DHT22;2630;52.036;8.514;2023-06-24T18:05:00;25.70;99.90
5222;DHT22;2630;52.036;8.514;2023-06-24T18:07:26;25.60;99.90
5222;DHT22;2630;52.036;8.514;2023-06-24T18:09:51;25.60;99.90
5222;DHT22;2630;52.036;8.514;2023-06-24T18:12:17;25.50;99.90
5222;DHT22;2630;52.036;8.514;2023-06-24T18:14:42;25.50;99.90
5222;DHT22;2630;52.036;8.514;2023-06-24T18:17:08;25.40;99.90
5222;DHT22;2630;52.036;8.514;2023-06-24T18:22:03;25.40;99.90
5222;DHT22;2630;52.036;8.514;2023-06-24T18:24:29;25.30;99.90
5222;DHT22;2630;52.036;8.514;2023-06-24T18:26:54;25.30;99.90
5222;DHT22;2630;52.036;8.514;2023-06-24T18:31:46;25.30;99.90
5222;DHT22;2630;52.036;8.514;2023-06-24T18:34:11;25.30;99.90
5222;DHT22;2630;52.036;8.514;2023-06-24T18:36:37;25.20;99.90
5222;DHT22;2630;52.036;8.514;2023-06-24T18:39:03;25.20;99.90
5222;DHT22;2630;52.036;8.514;2023-06-24T18:43:54;25.10;99.90
5222;DHT22;2630;52.036;8.514;2023-06-24T18:46:20;25.10;99.90
5222;DHT22;2630;52.036;8.514;2023-06-24T18:51:13;25.00;99.90
5222;DHT22;2630;52.036;8.514;2023-06-24T18:53:38;25.00;99.90
5222;DHT22;2630;52.036;8.514;2023-06-24T18:56:04;25.00;99.90
5222;DHT22;2630;52.036;8.514;2023-06-24T18:58:30;24.80;99.90
5222;DHT22;2630;52.036;8.514;2023-06-24T19:03:22;24.70;99.90
5222;DHT22;2630;52.036;8.514;2023-06-24T19:05:47;24.60;99.90
5222;DHT22;2630;52.036;8.514;2023-06-24T19:10:39;24.40;99.90
5222;DHT22;2630;52.036;8.514;2023-06-24T19:13:04;24.40;99.90
5222;DHT22;2630;52.036;8.514;2023-06-24T19:15:30;24.20;99.90
5222;DHT22;2630;52.036;8.514;2023-06-24T19:17:56;24.10;99.90
5222;DHT22;2630;52.036;8.514;2023-06-24T19:20:21;24.00;99.90
5222;DHT22;2630;52.036;8.514;2023-06-24T19:22:47;23.90;99.90
5222;DHT22;2630;52.036;8.514;2023-06-24T19:25:13;23.80;99.90
5222;DHT22;2630;52.036;8.514;2023-06-24T19:30:05;23.50;99.90
5222;DHT22;2630;52.036;8.514;2023-06-24T19:32:32;23.40;99.90
5222;DHT22;2630;52.036;8.514;2023-06-24T19:34:57;23.30;99.90
5222;DHT22;2630;52.036;8.514;2023-06-24T19:37:25;23.30;99.90
5222;DHT22;2630;52.036;8.514;2023-06-24T19:39:50;23.10;99.90
5222;DHT22;2630;52.036;8.514;2023-06-24T19:42:16;22.90;99.90
5222;DHT22;2630;52.036;8.514;2023-06-24T19:44:42;22.90;99.90
5222;DHT22;2630;52.036;8.514;2023-06-24T19:47:07;22.70;99.90
5222;DHT22;2630;52.036;8.514;2023-06-24T19:51:59;22.50;99.90
5222;DHT22;2630;52.036;8.514;2023-06-24T19:54:24;22.40;99.90
5222;DHT22;2630;52.036;8.514;2023-06-24T19:59:16;22.10;99.90
5222;DHT22;2630;52.036;8.514;2023-06-24T20:01:42;21.90;99.90
5222;DHT22;2630;52.036;8.514;2023-06-24T20:04:07;21.70;99.90
5222;DHT22;2630;52.036;8.514;2023-06-24T20:06:33;21.60;99.90
5222;DHT22;2630;52.036;8.514;2023-06-24T20:08:59;21.50;99.90
5222;DHT22;2630;52.036;8.514;2023-06-24T20:13:51;21.40;99.90
5222;DHT22;2630;52.036;8.514;2023-06-24T20:21:10;21.30;99.90